createdAt,value
2018-09-11T00:01:52.351Z,99.90
2018-09-11T00:04:20.608Z,99.90
2018-09-11T00:06:48.821Z,99.90
2018-09-11T00:09:17.077Z,99.90
2018-09-11T00:11:46.054Z,99.90
2018-09-11T00:14:14.284Z,99.90
2018-09-11T00:16:42.451Z,99.90
2018-09-11T00:19:11.318Z,99.90
2018-09-11T00:21:39.584Z,99.90
2018-09-11T00:24:08.090Z,99.90
2018-09-11T00:26:36.299Z,99.90
2018-09-11T00:29:04.460Z,99.90
2018-09-11T00:31:32.646Z,99.90
2018-09-11T00:34:00.861Z,99.90
2018-09-11T00:36:29.041Z,99.90
2018-09-11T00:38:57.238Z,99.90
2018-09-11T00:41:25.379Z,99.90
2018-09-11T00:43:53.958Z,99.90
2018-09-11T00:46:22.269Z,99.90
2018-09-11T00:48:51.038Z,99.90
2018-09-11T00:51:19.445Z,99.90
2018-09-11T00:53:47.621Z,99.90
2018-09-11T00:56:15.830Z,99.90
2018-09-11T00:58:43.998Z,99.90
2018-09-11T01:01:12.744Z,99.90
2018-09-11T01:03:40.927Z,99.90
2018-09-11T01:06:09.117Z,99.90
2018-09-11T01:08:38.025Z,99.90
2018-09-11T01:11:06.257Z,99.90
2018-09-11T01:13:34.439Z,99.90
2018-09-11T01:16:02.686Z,99.90
2018-09-11T01:18:30.856Z,99.90
2018-09-11T01:20:59.041Z,99.90
2018-09-11T01:23:27.250Z,99.90
2018-09-11T01:25:56.158Z,99.90
2018-09-11T01:28:24.325Z,99.90
2018-09-11T01:30:52.691Z,99.90
2018-09-11T01:33:20.850Z,99.90
2018-09-11T01:35:49.078Z,99.90
2018-09-11T01:38:17.402Z,99.90
2018-09-11T01:40:45.642Z,99.90
2018-09-11T01:43:13.785Z,99.90
2018-09-11T01:45:41.989Z,99.90
2018-09-11T01:48:10.186Z,99.90
2018-09-11T01:50:38.406Z,99.90
2018-09-11T01:53:07.312Z,99.90
2018-09-11T01:55:35.470Z,99.90
2018-09-11T01:58:03.691Z,99.90
2018-09-11T02:00:31.934Z,99.90
2018-09-11T02:03:00.282Z,99.90
2018-09-11T02:05:28.470Z,99.90
2018-09-11T02:07:56.680Z,99.90
2018-09-11T02:10:24.884Z,99.90
2018-09-11T02:12:53.066Z,99.90
2018-09-11T02:15:21.217Z,99.90
2018-09-11T02:17:49.426Z,99.90
2018-09-11T02:20:18.482Z,99.90
2018-09-11T02:22:48.195Z,99.90
2018-09-11T02:25:17.098Z,99.90
2018-09-11T02:27:45.303Z,99.90
2018-09-11T02:30:13.539Z,99.90
2018-09-11T02:32:41.686Z,99.90
2018-09-11T02:35:09.887Z,99.90
2018-09-11T02:37:38.087Z,99.90
2018-09-11T02:40:06.287Z,99.90
2018-09-11T02:42:34.479Z,99.90
2018-09-11T02:45:02.818Z,99.90
2018-09-11T02:47:31.023Z,99.90
2018-09-11T02:49:59.235Z,99.90
2018-09-11T02:52:27.363Z,99.90
2018-09-11T02:54:55.528Z,99.90
2018-09-11T02:57:26.383Z,99.90
2018-09-11T02:59:54.535Z,99.90
2018-09-11T03:02:22.767Z,99.90
2018-09-11T03:04:51.602Z,99.90
2018-09-11T03:07:19.757Z,99.90
2018-09-11T03:09:47.987Z,99.90
2018-09-11T03:12:17.010Z,99.90
2018-09-11T03:14:45.230Z,99.90
2018-09-11T03:17:13.464Z,99.90
2018-09-11T03:19:41.702Z,99.90
2018-09-11T03:22:09.890Z,99.90
2018-09-11T03:24:38.078Z,99.90
2018-09-11T03:27:06.293Z,99.90
2018-09-11T03:29:34.489Z,99.90
2018-09-11T03:32:03.487Z,99.90
2018-09-11T03:34:31.673Z,99.90
2018-09-11T03:36:59.869Z,99.90
2018-09-11T03:39:28.014Z,99.90
2018-09-11T03:41:56.170Z,99.90
2018-09-11T03:44:24.502Z,99.90
2018-09-11T03:46:52.674Z,99.90
2018-09-11T03:49:20.886Z,99.90
2018-09-11T03:51:49.978Z,99.90
2018-09-11T03:54:18.318Z,99.90
2018-09-11T03:56:46.818Z,99.90
2018-09-11T03:59:15.079Z,99.90
2018-09-11T04:01:43.226Z,99.90
2018-09-11T04:04:11.418Z,99.90
2018-09-11T04:06:39.642Z,99.90
2018-09-11T04:09:09.177Z,99.90
2018-09-11T04:11:37.319Z,99.90
2018-09-11T04:14:05.647Z,99.90
2018-09-11T04:16:33.854Z,99.90
2018-09-11T04:19:02.181Z,99.90
2018-09-11T04:21:30.612Z,99.90
2018-09-11T04:23:58.858Z,99.90
2018-09-11T04:26:27.650Z,99.90
2018-09-11T04:28:55.844Z,99.90
2018-09-11T04:31:24.206Z,99.90
2018-09-11T04:33:52.399Z,99.90
2018-09-11T04:36:22.509Z,99.90
2018-09-11T04:38:50.715Z,99.90
2018-09-11T04:41:18.917Z,99.90
2018-09-11T04:43:47.113Z,99.90
2018-09-11T04:46:15.315Z,99.90
2018-09-11T04:48:44.977Z,99.90
2018-09-11T04:51:13.212Z,99.90
2018-09-11T04:53:43.331Z,99.90
2018-09-11T04:56:11.593Z,99.90
2018-09-11T04:58:39.912Z,99.90
2018-09-11T05:01:08.330Z,99.90
2018-09-11T05:03:36.466Z,99.90
2018-09-11T05:06:05.279Z,99.90
2018-09-11T05:08:35.206Z,99.90
2018-09-11T05:11:03.486Z,99.90
2018-09-11T05:13:32.010Z,99.90
2018-09-11T05:16:00.197Z,99.90
2018-09-11T05:18:28.366Z,99.90
2018-09-11T05:20:58.352Z,99.90
2018-09-11T05:23:26.518Z,99.90
2018-09-11T05:25:54.733Z,99.90
2018-09-11T05:28:22.930Z,99.90
2018-09-11T05:30:51.105Z,99.90
2018-09-11T05:33:19.301Z,99.90
2018-09-11T05:35:47.502Z,99.90
2018-09-11T05:38:15.725Z,99.90
2018-09-11T05:40:43.973Z,99.90
2018-09-11T05:43:12.230Z,99.90
2018-09-11T05:45:40.470Z,99.90
2018-09-11T05:48:08.654Z,99.90
2018-09-11T05:50:36.905Z,99.90
2018-09-11T05:53:05.200Z,99.90
2018-09-11T05:55:33.387Z,99.90
2018-09-11T05:58:01.573Z,99.90
2018-09-11T06:00:29.795Z,99.90
2018-09-11T06:02:58.006Z,99.90
2018-09-11T06:05:26.218Z,99.90
2018-09-11T06:07:54.434Z,99.90
2018-09-11T06:10:22.654Z,99.90
2018-09-11T06:12:50.857Z,99.90
2018-09-11T06:15:19.033Z,99.90
2018-09-11T06:17:47.225Z,99.90
2018-09-11T06:20:15.402Z,99.90
2018-09-11T06:22:43.571Z,99.90
2018-09-11T06:25:11.768Z,99.90
2018-09-11T06:27:39.947Z,99.90
2018-09-11T06:30:08.107Z,99.90
2018-09-11T06:32:36.274Z,99.90
2018-09-11T06:35:04.633Z,99.90
2018-09-11T06:37:32.825Z,99.90
2018-09-11T06:40:00.998Z,99.90
2018-09-11T06:42:29.173Z,99.90
2018-09-11T06:44:57.341Z,99.90
2018-09-11T06:47:25.568Z,99.90
2018-09-11T06:49:53.787Z,99.90
2018-09-11T06:52:21.998Z,99.90
2018-09-11T06:54:50.693Z,99.90
2018-09-11T06:57:19.189Z,99.90
2018-09-11T06:59:47.533Z,99.90
2018-09-11T07:02:15.761Z,99.90
2018-09-11T07:04:45.876Z,99.90
2018-09-11T07:07:14.957Z,99.90
2018-09-11T07:09:43.186Z,99.90
2018-09-11T07:12:11.690Z,99.90
2018-09-11T07:14:39.902Z,99.90
2018-09-11T07:17:08.034Z,99.90
2018-09-11T07:19:36.296Z,99.90
2018-09-11T07:22:04.480Z,99.90
2018-09-11T07:24:32.694Z,99.90
2018-09-11T07:27:00.893Z,99.90
2018-09-11T07:29:29.075Z,99.90
2018-09-11T07:31:57.243Z,99.90
2018-09-11T07:34:25.463Z,99.90
2018-09-11T07:36:53.706Z,99.90
2018-09-11T07:39:21.930Z,99.90
2018-09-11T07:41:50.072Z,99.90
2018-09-11T07:44:18.258Z,99.90
2018-09-11T07:46:46.478Z,99.90
2018-09-11T07:49:14.692Z,99.90
2018-09-11T07:51:42.977Z,99.90
2018-09-11T07:54:11.170Z,99.90
2018-09-11T07:56:39.353Z,99.90
2018-09-11T07:59:07.545Z,99.90
2018-09-11T08:01:35.758Z,99.90
2018-09-11T08:04:03.907Z,99.90
2018-09-11T08:06:32.315Z,99.90
2018-09-11T08:09:00.494Z,99.90
2018-09-11T08:11:28.671Z,99.90
2018-09-11T08:13:57.630Z,99.90
2018-09-11T08:16:25.857Z,99.90
2018-09-11T08:18:54.003Z,99.90
2018-09-11T08:21:22.217Z,99.90
2018-09-11T08:23:50.412Z,99.90
2018-09-11T08:26:19.212Z,99.90
2018-09-11T08:28:47.425Z,99.90
2018-09-11T08:31:15.610Z,99.90
2018-09-11T08:33:44.634Z,99.90
2018-09-11T08:36:12.823Z,99.90
2018-09-11T08:38:40.999Z,99.90
2018-09-11T08:41:09.211Z,99.90
2018-09-11T08:43:37.393Z,99.90
2018-09-11T08:46:06.532Z,99.90
2018-09-11T08:48:35.256Z,99.90
2018-09-11T08:51:03.621Z,99.90
2018-09-11T08:53:31.918Z,99.90
2018-09-11T08:56:00.219Z,99.90
2018-09-11T08:58:28.907Z,99.90
2018-09-11T09:00:57.163Z,99.90
2018-09-11T09:03:25.512Z,99.90
2018-09-11T09:05:53.898Z,99.90
2018-09-11T09:08:22.174Z,99.90
2018-09-11T09:10:50.466Z,99.90
2018-09-11T09:13:20.939Z,99.90
2018-09-11T09:15:49.259Z,99.90
2018-09-11T09:18:18.560Z,99.90
2018-09-11T09:20:47.015Z,99.90
2018-09-11T09:23:15.297Z,99.90
2018-09-11T09:25:43.608Z,99.90
2018-09-11T09:28:12.263Z,99.90
2018-09-11T09:30:40.539Z,99.90
2018-09-11T09:33:08.841Z,99.90
2018-09-11T09:35:37.129Z,99.90
2018-09-11T09:38:05.537Z,99.90
2018-09-11T09:40:33.795Z,99.90
2018-09-11T09:43:02.047Z,99.90
2018-09-11T09:45:30.428Z,99.90
2018-09-11T09:47:58.715Z,99.90
2018-09-11T09:50:28.732Z,99.90
2018-09-11T09:52:57.907Z,99.90
2018-09-11T09:55:26.191Z,99.90
2018-09-11T09:57:54.446Z,99.90
2018-09-11T10:00:28.284Z,99.90
2018-09-11T10:02:56.621Z,99.90
2018-09-11T10:05:25.003Z,99.90
2018-09-11T10:07:53.300Z,99.90
2018-09-11T10:10:21.874Z,99.90
2018-09-11T10:12:50.555Z,99.90
2018-09-11T10:15:18.879Z,99.90
2018-09-11T10:17:47.159Z,99.90
2018-09-11T10:20:15.410Z,99.90
2018-09-11T10:22:43.848Z,99.90
2018-09-11T10:25:12.601Z,99.90
2018-09-11T10:27:41.000Z,99.90
2018-09-11T10:30:09.281Z,99.90
2018-09-11T10:32:38.259Z,99.60
2018-09-11T10:35:07.369Z,99.40
2018-09-11T10:37:35.627Z,99.00
2018-09-11T10:40:06.228Z,98.10
2018-09-11T10:42:34.517Z,97.60
2018-09-11T10:45:02.882Z,98.10
2018-09-11T10:47:31.489Z,98.30
2018-09-11T10:49:59.868Z,97.50
2018-09-11T10:52:28.202Z,97.30
2018-09-11T10:54:56.697Z,96.80
2018-09-11T10:57:28.534Z,96.70
2018-09-11T10:59:56.770Z,95.70
2018-09-11T11:02:25.027Z,94.40
2018-09-11T11:04:53.637Z,92.60
2018-09-11T11:07:21.911Z,91.40
2018-09-11T11:09:51.106Z,92.40
2018-09-11T11:12:19.485Z,92.90
2018-09-11T11:14:47.786Z,92.80
2018-09-11T11:17:16.129Z,93.00
2018-09-11T11:19:44.577Z,92.70
2018-09-11T11:22:12.947Z,91.00
2018-09-11T11:24:41.380Z,90.80
2018-09-11T11:27:09.882Z,91.10
2018-09-11T11:29:38.044Z,90.90
2018-09-11T11:32:06.468Z,90.50
2018-09-11T11:34:34.797Z,90.40
2018-09-11T11:37:03.656Z,90.30
2018-09-11T11:39:31.915Z,90.60
2018-09-11T11:42:00.195Z,90.70
2018-09-11T11:44:28.631Z,91.00
2018-09-11T11:46:56.981Z,90.00
2018-09-11T11:52:03.574Z,90.60
2018-09-11T11:54:31.875Z,90.00
2018-09-11T11:57:00.185Z,90.40
2018-09-11T11:59:31.804Z,90.60
2018-09-11T12:02:00.284Z,90.40
2018-09-11T12:04:28.559Z,90.60
2018-09-11T12:06:56.804Z,90.50
2018-09-11T12:09:25.090Z,89.30
2018-09-11T12:11:53.432Z,89.60
2018-09-11T12:14:21.915Z,90.60
2018-09-11T12:17:26.067Z,90.50
2018-09-11T12:22:48.388Z,90.50
2018-09-11T12:25:36.478Z,88.90
2018-09-11T12:31:54.540Z,88.00
2018-09-11T12:36:08.144Z,88.50
2018-09-11T12:39:13.651Z,89.20
2018-09-11T12:41:42.112Z,87.40
2018-09-11T12:44:16.285Z,88.30
2018-09-11T12:46:47.782Z,87.90
2018-09-11T12:49:15.904Z,87.40
2018-09-11T12:51:44.175Z,87.70
2018-09-11T12:54:12.674Z,88.70
2018-09-11T12:56:40.856Z,88.30
2018-09-11T12:59:09.141Z,86.40
2018-09-11T13:01:37.440Z,85.50
2018-09-11T13:04:05.710Z,85.50
2018-09-11T13:06:34.035Z,85.70
2018-09-11T13:09:03.700Z,87.30
2018-09-11T13:11:31.928Z,86.60
2018-09-11T13:14:00.270Z,85.50
2018-09-11T13:16:28.487Z,84.70
2018-09-11T13:18:56.871Z,86.00
2018-09-11T13:21:25.180Z,84.50
2018-09-11T13:23:53.662Z,83.00
2018-09-11T13:26:22.094Z,82.70
2018-09-11T13:28:50.539Z,81.40
2018-09-11T13:31:19.073Z,80.80
2018-09-11T13:33:47.596Z,80.00
2018-09-11T13:36:19.204Z,80.70
2018-09-11T13:38:47.776Z,80.60
2018-09-11T13:41:16.225Z,80.30
2018-09-11T13:43:44.714Z,80.80
2018-09-11T13:46:13.041Z,80.20
2018-09-11T13:48:41.284Z,79.40
2018-09-11T13:51:09.512Z,80.10
2018-09-11T13:53:38.884Z,78.80
2018-09-11T13:56:07.169Z,78.70
2018-09-11T13:58:35.547Z,77.90
2018-09-11T14:01:03.811Z,76.10
2018-09-11T14:03:32.192Z,76.80
2018-09-11T14:06:00.531Z,76.50
2018-09-11T14:08:29.046Z,75.50
2018-09-11T14:10:57.659Z,77.00
2018-09-11T14:13:40.635Z,75.70
2018-09-11T14:16:08.907Z,74.30
2018-09-11T14:18:37.546Z,74.20
2018-09-11T14:21:06.600Z,73.40
2018-09-11T14:23:34.847Z,72.10
2018-09-11T14:26:03.348Z,71.40
2018-09-11T14:28:31.886Z,71.50
2018-09-11T14:31:00.216Z,70.20
2018-09-11T14:33:28.482Z,69.20
2018-09-11T14:35:57.574Z,69.40
2018-09-11T14:38:25.906Z,69.30
2018-09-11T14:40:54.174Z,71.00
2018-09-11T14:43:23.243Z,69.20
2018-09-11T14:45:51.511Z,68.70
2018-09-11T14:48:19.744Z,67.80
2018-09-11T14:50:47.988Z,67.30
2018-09-11T14:53:16.355Z,65.70
2018-09-11T14:55:44.753Z,65.70
2018-09-11T14:58:13.059Z,65.90
2018-09-11T15:00:41.667Z,66.80
2018-09-11T15:03:10.032Z,67.40
2018-09-11T15:05:38.278Z,69.10
2018-09-11T15:08:06.903Z,69.00
2018-09-11T15:10:35.258Z,67.90
2018-09-11T15:13:03.536Z,68.60
2018-09-11T15:15:31.779Z,69.00
2018-09-11T15:18:00.062Z,67.80
2018-09-11T15:20:28.383Z,67.90
2018-09-11T15:22:56.674Z,67.10
2018-09-11T15:25:24.927Z,67.70
2018-09-11T15:27:53.433Z,67.40
2018-09-11T15:30:21.686Z,67.30
2018-09-11T15:32:49.953Z,66.70
2018-09-11T15:35:18.178Z,67.80
2018-09-11T15:37:46.491Z,66.70
2018-09-11T15:40:14.768Z,66.80
2018-09-11T15:42:43.007Z,66.70
2018-09-11T15:45:11.211Z,68.30
2018-09-11T15:47:39.495Z,67.20
2018-09-11T15:50:07.748Z,67.40
2018-09-11T15:52:35.964Z,68.50
2018-09-11T15:55:04.407Z,68.40
2018-09-11T15:57:32.678Z,68.60
2018-09-11T16:00:00.922Z,69.50
2018-09-11T16:02:29.164Z,69.20
2018-09-11T16:04:57.430Z,68.30
2018-09-11T16:07:25.715Z,69.30
2018-09-11T16:09:53.945Z,68.10
2018-09-11T16:12:22.175Z,68.40
2018-09-11T16:14:50.398Z,68.90
2018-09-11T16:17:18.699Z,69.10
2018-09-11T16:19:46.925Z,68.10
2018-09-11T16:22:15.472Z,68.40
2018-09-11T16:24:43.699Z,68.70
2018-09-11T16:27:12.011Z,68.80
2018-09-11T16:29:40.382Z,68.60
2018-09-11T16:32:08.628Z,70.00
2018-09-11T16:34:36.961Z,69.00
2018-09-11T16:37:05.481Z,70.40
2018-09-11T16:39:33.764Z,69.30
2018-09-11T16:42:02.153Z,69.70
2018-09-11T16:44:30.541Z,70.10
2018-09-11T16:46:58.950Z,70.90
2018-09-11T16:49:27.346Z,70.60
2018-09-11T16:51:55.673Z,71.60
2018-09-11T16:54:24.365Z,71.90
2018-09-11T16:56:53.004Z,73.00
2018-09-11T16:59:22.046Z,74.40
2018-09-11T17:01:50.569Z,75.90
2018-09-11T17:04:20.077Z,77.30
2018-09-11T17:06:48.520Z,77.80
2018-09-11T17:09:17.105Z,78.40
2018-09-11T17:11:45.663Z,79.00
2018-09-11T17:14:14.073Z,79.50
2018-09-11T17:16:42.534Z,80.10
2018-09-11T17:19:11.415Z,81.10
2018-09-11T17:21:39.907Z,80.80
2018-09-11T17:24:08.640Z,81.20
2018-09-11T17:26:37.273Z,81.30
2018-09-11T17:29:05.902Z,81.80
2018-09-11T17:31:34.450Z,82.70
2018-09-11T17:34:03.361Z,82.40
2018-09-11T17:36:31.792Z,83.00
2018-09-11T17:39:00.317Z,83.10
2018-09-11T17:41:29.911Z,83.10
2018-09-11T17:43:58.532Z,83.80
2018-09-11T17:46:27.162Z,84.30
2018-09-11T17:48:55.639Z,84.10
2018-09-11T17:51:24.014Z,84.40
2018-09-11T17:53:52.467Z,84.50
2018-09-11T17:56:20.789Z,85.40
2018-09-11T17:58:49.347Z,85.50
2018-09-11T18:01:17.667Z,85.80
2018-09-11T18:03:45.958Z,86.30
2018-09-11T18:06:14.545Z,86.80
2018-09-11T18:08:43.357Z,87.10
2018-09-11T18:11:12.199Z,88.10
2018-09-11T18:13:41.697Z,88.10
2018-09-11T18:16:12.511Z,88.20
2018-09-11T18:18:42.213Z,88.40
2018-09-11T18:21:10.555Z,89.80
2018-09-11T18:23:38.830Z,89.80
2018-09-11T18:26:07.335Z,90.00
2018-09-11T18:28:35.813Z,90.30
2018-09-11T18:31:04.326Z,90.50
2018-09-11T18:33:33.596Z,90.80
2018-09-11T18:36:02.052Z,91.00
2018-09-11T18:38:30.380Z,91.10
2018-09-11T18:40:58.700Z,91.10
2018-09-11T18:43:27.078Z,91.10
2018-09-11T18:45:55.367Z,91.20
2018-09-11T18:48:23.894Z,91.30
2018-09-11T18:50:52.380Z,91.60
2018-09-11T18:53:20.873Z,91.80
2018-09-11T18:55:49.267Z,92.00
2018-09-11T18:58:17.727Z,92.20
2018-09-11T19:00:46.507Z,92.40
2018-09-11T19:03:14.870Z,92.60
2018-09-11T19:05:43.564Z,93.00
2018-09-11T19:08:12.047Z,93.10
2018-09-11T19:10:40.505Z,93.30
2018-09-11T19:13:12.588Z,93.60
2018-09-11T19:15:41.008Z,94.00
2018-09-11T19:18:09.439Z,94.40
2018-09-11T19:20:38.141Z,94.60
2018-09-11T19:23:06.909Z,94.70
2018-09-11T19:25:35.209Z,95.20
2018-09-11T19:28:03.862Z,96.10
2018-09-11T19:30:33.908Z,96.60
2018-09-11T19:33:02.469Z,96.30
2018-09-11T19:35:30.940Z,96.50
2018-09-11T19:37:59.380Z,96.50
2018-09-11T19:40:29.276Z,96.80
2018-09-11T19:42:57.740Z,97.00
2018-09-11T19:45:26.642Z,97.50
2018-09-11T19:47:55.778Z,97.90
2018-09-11T19:50:24.603Z,98.30
2018-09-11T19:52:53.840Z,98.80
2018-09-11T19:55:22.986Z,99.50
2018-09-11T19:57:52.039Z,99.90
2018-09-11T20:00:20.828Z,99.90
2018-09-11T20:02:49.467Z,99.90
2018-09-11T20:05:17.891Z,99.90
2018-09-11T20:07:46.245Z,99.90
2018-09-11T20:10:17.934Z,99.90
2018-09-11T20:12:48.539Z,99.90
2018-09-11T20:15:17.082Z,99.90
2018-09-11T20:17:47.891Z,99.90
2018-09-11T20:20:16.635Z,99.90
2018-09-11T20:22:45.249Z,99.90
2018-09-11T20:25:13.751Z,99.90
2018-09-11T20:27:42.612Z,99.90
2018-09-11T20:30:11.286Z,99.90
2018-09-11T20:32:41.309Z,99.90
2018-09-11T20:35:09.723Z,99.90
2018-09-11T20:37:39.119Z,99.90
2018-09-11T20:40:07.627Z,99.90
2018-09-11T20:42:40.574Z,99.90
2018-09-11T20:45:09.489Z,99.90
2018-09-11T20:47:43.344Z,99.90
2018-09-11T20:50:12.515Z,99.90
2018-09-11T20:52:46.165Z,99.90
2018-09-11T20:55:17.788Z,99.90
2018-09-11T20:57:46.545Z,99.90
2018-09-11T21:00:14.953Z,99.90
2018-09-11T21:02:44.695Z,99.90
2018-09-11T21:05:15.916Z,99.90
2018-09-11T21:07:44.917Z,99.90
2018-09-11T21:10:13.379Z,99.90
2018-09-11T21:12:41.788Z,99.90
2018-09-11T21:15:13.932Z,99.90
2018-09-11T21:17:42.531Z,99.90
2018-09-11T21:20:11.587Z,99.90
2018-09-11T21:22:40.051Z,99.90
2018-09-11T21:25:08.636Z,99.90
2018-09-11T21:27:37.371Z,99.90
2018-09-11T21:30:06.335Z,99.90
2018-09-11T21:32:34.925Z,99.90
2018-09-11T21:35:03.575Z,99.90
2018-09-11T21:37:32.396Z,99.90
2018-09-11T21:40:01.408Z,99.90
2018-09-11T21:42:30.243Z,99.90
2018-09-11T21:44:58.907Z,99.90
2018-09-11T21:47:27.391Z,99.90
2018-09-11T21:49:56.222Z,99.90
2018-09-11T21:52:24.996Z,99.90
2018-09-11T21:54:54.021Z,99.90
2018-09-11T21:57:22.572Z,99.90
2018-09-11T21:59:51.461Z,99.90
2018-09-11T22:02:20.176Z,99.90
2018-09-11T22:04:48.723Z,99.90
2018-09-11T22:07:17.404Z,99.90
2018-09-11T22:09:45.887Z,99.90
2018-09-11T22:12:15.200Z,99.90
2018-09-11T22:14:43.869Z,99.90
2018-09-11T22:17:12.645Z,99.90
2018-09-11T22:19:41.134Z,99.90
2018-09-11T22:22:09.638Z,99.90
2018-09-11T22:24:38.815Z,99.90
2018-09-11T22:27:07.324Z,99.90
2018-09-11T22:29:36.092Z,99.90
2018-09-11T22:32:04.467Z,99.90
2018-09-11T22:34:34.123Z,99.90
2018-09-11T22:37:02.663Z,99.90
2018-09-11T22:39:31.777Z,99.90
2018-09-11T22:42:00.432Z,99.90
2018-09-11T22:44:29.218Z,99.90
2018-09-11T22:46:57.618Z,99.90
2018-09-11T22:49:26.304Z,99.90
2018-09-11T22:51:55.924Z,99.90
2018-09-11T22:54:24.399Z,99.90
2018-09-11T22:56:57.872Z,99.90
2018-09-11T22:59:26.374Z,99.90
2018-09-11T23:01:54.904Z,99.90
2018-09-11T23:04:23.476Z,99.90
2018-09-11T23:06:52.125Z,99.90
2018-09-11T23:09:24.795Z,99.90
2018-09-11T23:11:53.284Z,99.90
2018-09-11T23:14:21.971Z,99.90
2018-09-11T23:16:50.845Z,99.90
2018-09-11T23:19:20.246Z,99.90
2018-09-11T23:21:48.920Z,99.90
2018-09-11T23:24:17.401Z,99.90
2018-09-11T23:26:46.595Z,99.90
2018-09-11T23:29:15.113Z,99.90
2018-09-11T23:31:43.595Z,99.90
2018-09-11T23:34:12.123Z,99.90
2018-09-11T23:36:40.732Z,99.90
2018-09-11T23:39:09.607Z,99.90
2018-09-11T23:41:38.805Z,99.90
2018-09-11T23:44:07.538Z,99.90
2018-09-11T23:46:35.806Z,99.90
2018-09-11T23:49:04.276Z,99.90
2018-09-11T23:51:32.696Z,99.90
2018-09-11T23:54:01.457Z,99.90
2018-09-11T23:56:30.012Z,99.90
2018-09-11T23:58:59.144Z,99.90
